createdAt,value
2018-11-10T00:00:32.064Z,1010.16
2018-11-10T00:01:33.035Z,1010.19
2018-11-10T00:02:32.587Z,1010.19
2018-11-10T00:03:32.087Z,1010.16
2018-11-10T00:04:32.531Z,1010.13
2018-11-10T00:05:32.531Z,1010.13
2018-11-10T00:06:31.906Z,1010.14
2018-11-10T00:07:31.898Z,1010.08
2018-11-10T00:08:32.531Z,1010.07
2018-11-10T00:09:32.557Z,1010.05
2018-11-10T00:10:31.758Z,1010.06
2018-11-10T00:11:32.531Z,1010.05
2018-11-10T00:12:32.100Z,1010.01
2018-11-10T00:13:32.085Z,1009.98
2018-11-10T00:14:31.671Z,1009.99
2018-11-10T00:15:32.534Z,1009.96
2018-11-10T00:16:31.630Z,1009.89
2018-11-10T00:17:32.538Z,1009.93
2018-11-10T00:18:31.687Z,1009.89
2018-11-10T00:19:32.037Z,1009.90
2018-11-10T00:20:32.055Z,1009.86
2018-11-10T00:21:32.033Z,1009.90
2018-11-10T00:22:31.454Z,1009.90
2018-11-10T00:23:31.409Z,1009.88
2018-11-10T00:24:32.029Z,1009.89
2018-11-10T00:25:32.062Z,1009.88
2018-11-10T00:26:32.033Z,1009.88
2018-11-10T00:27:31.230Z,1009.84
2018-11-10T00:28:31.595Z,1009.86
2018-11-10T00:29:31.172Z,1009.89
2018-11-10T00:30:32.034Z,1009.88
2018-11-10T00:31:32.031Z,1009.85
2018-11-10T00:32:31.594Z,1009.79
2018-11-10T00:33:31.109Z,1009.75
2018-11-10T00:34:31.560Z,1009.73
2018-11-10T00:35:30.980Z,1009.74
2018-11-10T00:36:31.527Z,1009.76
2018-11-10T00:37:32.437Z,1009.72
2018-11-10T00:38:31.115Z,1009.71
2018-11-10T00:39:31.532Z,1009.66
2018-11-10T00:40:30.824Z,1009.67
2018-11-10T00:41:30.798Z,1009.68
2018-11-10T00:42:31.562Z,1009.69
2018-11-10T00:43:30.790Z,1009.67
2018-11-10T00:44:30.700Z,1009.72
2018-11-10T00:45:31.535Z,1009.75
2018-11-10T00:46:30.640Z,1009.73
2018-11-10T00:47:31.536Z,1009.77
2018-11-10T00:48:30.677Z,1009.80
2018-11-10T00:49:31.577Z,1009.82
2018-11-10T00:50:31.034Z,1009.85
2018-11-10T00:51:30.485Z,1009.84
2018-11-10T00:52:30.450Z,1009.87
2018-11-10T00:53:30.593Z,1009.86
2018-11-10T00:54:31.048Z,1009.85
2018-11-10T00:55:31.039Z,1009.85
2018-11-10T00:56:30.371Z,1009.83
2018-11-10T00:57:31.045Z,1009.85
2018-11-10T00:58:31.035Z,1009.81
2018-11-10T00:59:30.226Z,1009.82
2018-11-10T01:00:31.042Z,1009.81
2018-11-10T01:01:30.596Z,1009.84
2018-11-10T01:02:31.043Z,1009.85
2018-11-10T01:03:31.042Z,1009.83
2018-11-10T01:04:30.073Z,1009.85
2018-11-10T01:05:30.098Z,1009.78
2018-11-10T01:06:30.536Z,1009.72
2018-11-10T01:07:30.539Z,1009.73
2018-11-10T01:08:29.937Z,1009.70
2018-11-10T01:09:30.538Z,1009.67
2018-11-10T01:10:30.097Z,1009.67
2018-11-10T01:11:30.538Z,1009.68
2018-11-10T01:12:29.838Z,1009.72
2018-11-10T01:13:29.822Z,1009.73
2018-11-10T01:14:29.802Z,1009.69
2018-11-10T01:15:29.721Z,1009.71
2018-11-10T01:16:30.532Z,1009.70
2018-11-10T01:17:29.657Z,1009.71
2018-11-10T01:18:30.535Z,1009.70
2018-11-10T01:19:29.632Z,1009.70
2018-11-10T01:20:29.558Z,1009.67
2018-11-10T01:21:29.573Z,1009.63
2018-11-10T01:22:30.037Z,1009.59
2018-11-10T01:23:30.036Z,1009.59
2018-11-10T01:24:29.433Z,1009.58
2018-11-10T01:25:29.448Z,1009.58
2018-11-10T01:26:30.039Z,1009.59
2018-11-10T01:27:29.343Z,1009.56
2018-11-10T01:28:29.307Z,1009.56
2018-11-10T01:29:29.276Z,1009.59
2018-11-10T01:30:29.591Z,1009.55
2018-11-10T01:31:30.046Z,1009.51
2018-11-10T01:32:30.057Z,1009.51
2018-11-10T01:33:29.148Z,1009.55
2018-11-10T01:34:30.036Z,1009.54
2018-11-10T01:35:29.139Z,1009.52
2018-11-10T01:36:30.035Z,1009.53
2018-11-10T01:37:29.537Z,1009.54
2018-11-10T01:38:29.547Z,1009.52
2018-11-10T01:39:28.955Z,1009.50
2018-11-10T01:40:29.103Z,1009.51
2018-11-10T01:41:28.894Z,1009.47
2018-11-10T01:42:28.911Z,1009.48
2018-11-10T01:43:29.538Z,1009.45
2018-11-10T01:44:28.793Z,1009.40
2018-11-10T01:45:29.554Z,1009.41
2018-11-10T01:46:28.784Z,1009.42
2018-11-10T01:47:29.545Z,1009.40
2018-11-10T01:48:29.538Z,1009.34
2018-11-10T01:49:28.643Z,1009.33
2018-11-10T01:50:29.537Z,1009.34
2018-11-10T01:51:29.094Z,1009.31
2018-11-10T01:52:28.598Z,1009.34
2018-11-10T01:53:29.048Z,1009.32
2018-11-10T01:54:28.481Z,1009.33
2018-11-10T01:55:29.040Z,1009.31
2018-11-10T01:56:29.037Z,1009.32
2018-11-10T01:57:28.605Z,1009.28
2018-11-10T01:58:29.041Z,1009.28
2018-11-10T01:59:28.339Z,1009.27
2018-11-10T02:00:28.282Z,1009.32
2018-11-10T02:01:29.049Z,1009.30
2018-11-10T02:02:28.598Z,1009.28
2018-11-10T02:03:29.065Z,1009.27
2018-11-10T02:04:29.043Z,1009.25
2018-11-10T02:05:28.123Z,1009.22
2018-11-10T02:06:29.046Z,1009.15
2018-11-10T02:07:28.618Z,1009.17
2018-11-10T02:08:28.032Z,1009.16
2018-11-10T02:09:28.544Z,1009.19
2018-11-10T02:10:27.969Z,1009.17
2018-11-10T02:11:28.545Z,1009.17
2018-11-10T02:12:27.964Z,1009.16
2018-11-10T02:13:28.542Z,1009.12
2018-11-10T02:14:27.973Z,1009.14
2018-11-10T02:15:28.541Z,1009.13
2018-11-10T02:16:27.773Z,1009.13
2018-11-10T02:17:28.545Z,1009.12
2018-11-10T02:18:27.746Z,1009.16
2018-11-10T02:19:28.594Z,1009.13
2018-11-10T02:20:27.649Z,1009.11
2018-11-10T02:21:28.544Z,1009.10
2018-11-10T02:22:28.542Z,1009.10
2018-11-10T02:23:27.599Z,1009.08
2018-11-10T02:24:27.626Z,1009.09
2018-11-10T02:25:27.488Z,1009.12
2018-11-10T02:26:27.450Z,1009.15
2018-11-10T02:27:28.045Z,1009.10
2018-11-10T02:28:27.608Z,1009.13
2018-11-10T02:29:27.627Z,1009.10
2018-11-10T02:30:28.044Z,1009.11
2018-11-10T02:31:28.045Z,1009.09
2018-11-10T02:32:27.606Z,1009.08
2018-11-10T02:33:28.047Z,1009.09
2018-11-10T02:34:27.240Z,1009.09
2018-11-10T02:35:28.048Z,1009.09
2018-11-10T02:36:27.128Z,1009.06
2018-11-10T02:37:28.047Z,1009.12
2018-11-10T02:38:28.091Z,1009.09
2018-11-10T02:39:27.105Z,1009.07
2018-11-10T02:40:27.545Z,1009.12
2018-11-10T02:41:27.547Z,1009.07
2018-11-10T02:42:26.946Z,1009.10
2018-11-10T02:43:27.546Z,1009.08
2018-11-10T02:44:27.104Z,1009.09
2018-11-10T02:45:27.556Z,1009.08
2018-11-10T02:46:26.864Z,1009.04
2018-11-10T02:47:26.783Z,1009.04
2018-11-10T02:48:26.746Z,1009.03
2018-11-10T02:49:26.719Z,1009.00
2018-11-10T02:50:27.102Z,1009.01
2018-11-10T02:51:27.550Z,1009.00
2018-11-10T02:52:27.544Z,1009.00
2018-11-10T02:53:26.603Z,1008.98
2018-11-10T02:54:26.557Z,1008.99
2018-11-10T02:55:26.622Z,1008.97
2018-11-10T02:56:26.497Z,1009.01
2018-11-10T02:57:27.048Z,1009.01
2018-11-10T02:58:26.437Z,1008.99
2018-11-10T02:59:27.055Z,1008.98
2018-11-10T03:00:26.602Z,1009.02
2018-11-10T03:01:26.352Z,1009.02
2018-11-10T03:02:27.049Z,1009.06
2018-11-10T03:03:26.321Z,1009.06
2018-11-10T03:04:27.044Z,1009.06
2018-11-10T03:05:27.049Z,1009.08
2018-11-10T03:06:27.052Z,1009.06
2018-11-10T03:07:26.602Z,1009.07
2018-11-10T03:08:26.116Z,1009.05
2018-11-10T03:09:26.083Z,1009.03
2018-11-10T03:10:26.058Z,1009.01
2018-11-10T03:11:26.081Z,1008.97
2018-11-10T03:12:25.998Z,1008.95
2018-11-10T03:13:26.555Z,1008.95
2018-11-10T03:14:25.924Z,1008.95
2018-11-10T03:15:26.556Z,1008.88
2018-11-10T03:16:26.184Z,1008.90
2018-11-10T03:17:25.825Z,1008.89
2018-11-10T03:18:25.842Z,1008.90
2018-11-10T03:19:25.811Z,1008.88
2018-11-10T03:20:25.737Z,1008.86
2018-11-10T03:21:25.698Z,1008.87
2018-11-10T03:22:26.105Z,1008.85
2018-11-10T03:23:25.637Z,1008.85
2018-11-10T03:24:26.550Z,1008.81
2018-11-10T03:25:25.576Z,1008.82
2018-11-10T03:26:25.540Z,1008.80
2018-11-10T03:27:25.613Z,1008.76
2018-11-10T03:28:26.052Z,1008.74
2018-11-10T03:29:26.055Z,1008.73
2018-11-10T03:30:25.609Z,1008.74
2018-11-10T03:31:26.048Z,1008.78
2018-11-10T03:32:26.060Z,1008.78
2018-11-10T03:33:25.320Z,1008.80
2018-11-10T03:34:25.288Z,1008.85
2018-11-10T03:35:25.298Z,1008.83
2018-11-10T03:36:28.052Z,1008.80
2018-11-10T03:37:26.050Z,1008.79
2018-11-10T03:38:25.163Z,1008.83
2018-11-10T03:39:25.617Z,1008.82
2018-11-10T03:40:26.053Z,1008.77
2018-11-10T03:41:25.065Z,1008.77
2018-11-10T03:42:25.551Z,1008.81
2018-11-10T03:43:25.555Z,1008.78
2018-11-10T03:44:25.111Z,1008.78
2018-11-10T03:45:25.551Z,1008.79
2018-11-10T03:46:25.515Z,1008.74
2018-11-10T03:47:24.871Z,1008.77
2018-11-10T03:48:25.111Z,1008.75
2018-11-10T03:49:25.556Z,1008.73
2018-11-10T03:50:25.119Z,1008.74
2018-11-10T03:51:25.642Z,1008.72
2018-11-10T03:52:25.568Z,1008.70
2018-11-10T03:53:24.685Z,1008.66
2018-11-10T03:54:24.648Z,1008.67
2018-11-10T03:55:25.110Z,1008.66
2018-11-10T03:56:25.560Z,1008.66
2018-11-10T03:57:24.560Z,1008.64
2018-11-10T03:58:25.051Z,1008.61
2018-11-10T03:59:24.492Z,1008.60
2018-11-10T04:00:24.614Z,1008.62
2018-11-10T04:01:25.057Z,1008.59
2018-11-10T04:02:24.396Z,1008.63
2018-11-10T04:03:25.059Z,1008.58
2018-11-10T04:04:24.374Z,1008.58
2018-11-10T04:05:24.339Z,1008.51
2018-11-10T04:06:25.054Z,1008.56
2018-11-10T04:07:25.058Z,1008.58
2018-11-10T04:08:25.055Z,1008.52
2018-11-10T04:09:24.610Z,1008.54
2018-11-10T04:10:24.136Z,1008.56
2018-11-10T04:11:24.620Z,1008.48
2018-11-10T04:12:24.071Z,1008.50
2018-11-10T04:13:24.556Z,1008.49
2018-11-10T04:14:24.556Z,1008.48
2018-11-10T04:15:24.564Z,1008.46
2018-11-10T04:16:23.995Z,1008.49
2018-11-10T04:17:24.560Z,1008.47
2018-11-10T04:18:23.877Z,1008.43
2018-11-10T04:19:24.562Z,1008.42
2018-11-10T04:20:24.557Z,1008.39
2018-11-10T04:21:24.117Z,1008.40
2018-11-10T04:22:24.565Z,1008.36
2018-11-10T04:23:23.715Z,1008.34
2018-11-10T04:24:24.124Z,1008.34
2018-11-10T04:25:24.560Z,1008.29
2018-11-10T04:26:23.629Z,1008.31
2018-11-10T04:27:23.585Z,1008.31
2018-11-10T04:28:24.063Z,1008.31
2018-11-10T04:29:23.564Z,1008.30
2018-11-10T04:30:24.055Z,1008.31
2018-11-10T04:31:23.456Z,1008.30
2018-11-10T04:32:23.473Z,1008.32
2018-11-10T04:33:23.395Z,1008.25
2018-11-10T04:34:24.062Z,1008.24
2018-11-10T04:35:24.060Z,1008.26
2018-11-10T04:36:23.610Z,1008.24
2018-11-10T04:37:23.321Z,1008.25
2018-11-10T04:38:24.059Z,1008.27
2018-11-10T04:39:23.202Z,1008.25
2018-11-10T04:40:24.061Z,1008.24
2018-11-10T04:41:24.103Z,1008.24
2018-11-10T04:42:23.606Z,1008.22
2018-11-10T04:43:23.614Z,1008.19
2018-11-10T04:44:23.039Z,1008.19
2018-11-10T04:45:23.558Z,1008.20
2018-11-10T04:46:23.120Z,1008.19
2018-11-10T04:47:23.564Z,1008.18
2018-11-10T04:48:23.562Z,1008.18
2018-11-10T04:49:23.114Z,1008.18
2018-11-10T04:50:23.559Z,1008.17
2018-11-10T04:51:23.108Z,1008.16
2018-11-10T04:52:22.776Z,1008.15
2018-11-10T04:53:23.120Z,1008.12
2018-11-10T04:54:23.563Z,1008.14
2018-11-10T04:55:22.680Z,1008.10
2018-11-10T04:56:37.563Z,1008.09
2018-11-10T04:57:23.581Z,1008.05
2018-11-10T04:58:23.121Z,1008.07
2018-11-10T04:59:23.061Z,1008.06
2018-11-10T05:00:23.094Z,1008.01
2018-11-10T05:01:23.131Z,1008.01
2018-11-10T05:02:23.068Z,1007.99
2018-11-10T05:03:22.636Z,1007.96
2018-11-10T05:04:22.393Z,1007.99
2018-11-10T05:05:22.354Z,1007.97
2018-11-10T05:06:23.076Z,1007.98
2018-11-10T05:07:22.292Z,1007.97
2018-11-10T05:08:22.303Z,1008.00
2018-11-10T05:09:23.061Z,1008.00
2018-11-10T05:10:23.065Z,1008.04
2018-11-10T05:11:22.221Z,1008.00
2018-11-10T05:12:23.061Z,1008.00
2018-11-10T05:13:22.140Z,1008.02
2018-11-10T05:14:22.068Z,1008.03
2018-11-10T05:15:22.091Z,1007.97
2018-11-10T05:16:22.011Z,1008.00
2018-11-10T05:17:22.566Z,1008.00
2018-11-10T05:18:21.940Z,1008.02
2018-11-10T05:19:22.561Z,1008.02
2018-11-10T05:20:22.120Z,1008.01
2018-11-10T05:21:21.844Z,1008.01
2018-11-10T05:22:22.577Z,1008.04
2018-11-10T05:23:21.775Z,1008.06
2018-11-10T05:24:21.761Z,1008.07
2018-11-10T05:25:22.129Z,1008.06
2018-11-10T05:26:21.727Z,1008.08
2018-11-10T05:27:22.564Z,1008.08
2018-11-10T05:28:21.617Z,1008.10
2018-11-10T05:29:21.589Z,1008.11
2018-11-10T05:30:21.598Z,1008.12
2018-11-10T05:31:21.524Z,1008.15
2018-11-10T05:32:21.482Z,1008.13
2018-11-10T05:33:22.153Z,1008.13
2018-11-10T05:34:22.066Z,1008.14
2018-11-10T05:35:21.641Z,1008.15
2018-11-10T05:36:22.068Z,1008.14
2018-11-10T05:37:21.329Z,1008.15
2018-11-10T05:38:21.295Z,1008.18
2018-11-10T05:39:22.071Z,1008.18
2018-11-10T05:40:21.621Z,1008.21
2018-11-10T05:41:22.070Z,1008.23
2018-11-10T05:42:22.066Z,1008.19
2018-11-10T05:43:22.068Z,1008.19
2018-11-10T05:44:21.098Z,1008.19
2018-11-10T05:45:21.106Z,1008.23
2018-11-10T05:46:21.566Z,1008.20
2018-11-10T05:47:21.566Z,1008.18
2018-11-10T05:48:21.566Z,1008.15
2018-11-10T05:49:20.935Z,1008.12
2018-11-10T05:50:20.946Z,1008.10
2018-11-10T05:51:21.122Z,1008.09
2018-11-10T05:52:20.834Z,1008.12
2018-11-10T05:53:21.596Z,1008.08
2018-11-10T05:54:21.567Z,1008.14
2018-11-10T05:55:21.573Z,1008.11
2018-11-10T05:56:21.121Z,1008.14
2018-11-10T05:57:21.591Z,1008.10
2018-11-10T05:58:20.637Z,1008.13
2018-11-10T05:59:21.574Z,1008.13
2018-11-10T06:00:21.573Z,1008.15
2018-11-10T06:01:20.628Z,1008.09
2018-11-10T06:02:20.557Z,1008.07
2018-11-10T06:03:21.136Z,1008.04
2018-11-10T06:04:21.078Z,1008.05
2018-11-10T06:05:20.424Z,1008.04
2018-11-10T06:06:20.386Z,1008.03
2018-11-10T06:07:20.626Z,1008.00
2018-11-10T06:08:21.072Z,1008.03
2018-11-10T06:09:21.164Z,1008.06
2018-11-10T06:10:21.231Z,1008.07
2018-11-10T06:11:20.216Z,1008.06
2018-11-10T06:12:20.641Z,1008.10
2018-11-10T06:13:20.162Z,1008.12
2018-11-10T06:14:20.121Z,1008.12
2018-11-10T06:15:20.094Z,1008.14
2018-11-10T06:16:20.059Z,1008.14
2018-11-10T06:17:20.131Z,1008.12
2018-11-10T06:18:20.571Z,1008.06
2018-11-10T06:19:20.005Z,1008.05
2018-11-10T06:20:20.012Z,1007.98
2018-11-10T06:21:19.892Z,1008.01
2018-11-10T06:22:19.865Z,1007.98
2018-11-10T06:23:20.573Z,1007.92
2018-11-10T06:24:20.127Z,1007.97
2018-11-10T06:25:19.771Z,1007.92
2018-11-10T06:26:20.570Z,1007.94
2018-11-10T06:27:20.127Z,1007.98
2018-11-10T06:28:19.709Z,1007.97
2018-11-10T06:29:19.639Z,1007.92
2018-11-10T06:30:19.706Z,1007.96
2018-11-10T06:31:20.568Z,1007.91
2018-11-10T06:32:20.112Z,1007.92
2018-11-10T06:33:20.070Z,1007.93
2018-11-10T06:34:20.071Z,1007.89
2018-11-10T06:35:19.487Z,1007.93
2018-11-10T06:36:19.414Z,1007.96
2018-11-10T06:37:20.083Z,1007.93
2018-11-10T06:38:19.348Z,1007.93
2018-11-10T06:39:19.330Z,1007.98
2018-11-10T06:40:19.326Z,1008.00
2018-11-10T06:41:19.268Z,1008.02
2018-11-10T06:42:19.269Z,1008.05
2018-11-10T06:43:19.187Z,1008.08
2018-11-10T06:44:19.162Z,1008.10
2018-11-10T06:45:19.128Z,1008.10
2018-11-10T06:46:19.140Z,1008.12
2018-11-10T06:47:19.100Z,1008.11
2018-11-10T06:48:19.053Z,1008.12
2018-11-10T06:49:19.578Z,1008.07
2018-11-10T06:50:19.601Z,1008.08
2018-11-10T06:51:19.130Z,1008.08
2018-11-10T06:52:18.903Z,1008.01
2018-11-10T06:53:19.581Z,1008.01
2018-11-10T06:54:19.578Z,1007.98
2018-11-10T06:55:18.806Z,1007.93
2018-11-10T06:56:18.834Z,1007.89
2018-11-10T06:57:18.743Z,1007.87
2018-11-10T06:58:18.716Z,1007.91
2018-11-10T06:59:18.684Z,1007.92
2018-11-10T07:00:18.688Z,1007.93
2018-11-10T07:01:18.617Z,1007.94
2018-11-10T07:02:18.636Z,1007.98
2018-11-10T07:03:18.613Z,1007.98
2018-11-10T07:04:18.517Z,1008.00
2018-11-10T07:05:18.533Z,1008.00
2018-11-10T07:06:18.461Z,1008.01
2018-11-10T07:07:18.428Z,1008.04
2018-11-10T07:08:18.397Z,1008.07
2018-11-10T07:09:18.425Z,1008.04
2018-11-10T07:10:18.337Z,1008.06
2018-11-10T07:11:18.299Z,1008.05
2018-11-10T07:12:18.304Z,1008.08
2018-11-10T07:13:19.084Z,1008.07
2018-11-10T07:14:18.206Z,1008.07
2018-11-10T07:15:19.088Z,1008.06
2018-11-10T07:16:18.142Z,1008.03
2018-11-10T07:17:18.201Z,1008.09
2018-11-10T07:18:18.080Z,1008.07
2018-11-10T07:19:18.052Z,1008.11
2018-11-10T07:20:18.019Z,1008.11
2018-11-10T07:21:18.096Z,1008.12
2018-11-10T07:22:17.996Z,1008.14
2018-11-10T07:23:17.921Z,1008.13
2018-11-10T07:24:17.890Z,1008.10
2018-11-10T07:25:18.138Z,1008.15
2018-11-10T07:26:17.832Z,1008.19
2018-11-10T07:27:17.851Z,1008.18
2018-11-10T07:28:17.764Z,1008.22
2018-11-10T07:29:17.738Z,1008.24
2018-11-10T07:30:17.703Z,1008.21
2018-11-10T07:31:17.673Z,1008.21
2018-11-10T07:32:17.684Z,1008.20
2018-11-10T07:33:17.623Z,1008.19
2018-11-10T07:34:17.583Z,1008.24
2018-11-10T07:35:17.552Z,1008.22
2018-11-10T07:36:17.519Z,1008.23
2018-11-10T07:37:17.594Z,1008.22
2018-11-10T07:38:17.455Z,1008.26
2018-11-10T07:39:17.426Z,1008.19
2018-11-10T07:40:17.436Z,1008.19
2018-11-10T07:41:17.359Z,1008.19
2018-11-10T07:42:17.387Z,1008.17
2018-11-10T07:43:17.298Z,1008.14
2018-11-10T07:44:17.267Z,1008.14
2018-11-10T07:45:17.280Z,1008.20
2018-11-10T07:46:17.204Z,1008.20
2018-11-10T07:47:17.660Z,1008.25
2018-11-10T07:48:17.146Z,1008.22
2018-11-10T07:49:17.122Z,1008.21
2018-11-10T07:50:17.604Z,1008.25
2018-11-10T07:51:17.093Z,1008.22
2018-11-10T07:52:17.149Z,1008.20
2018-11-10T07:53:16.993Z,1008.16
2018-11-10T07:54:16.966Z,1008.15
2018-11-10T07:55:16.927Z,1008.08
2018-11-10T07:56:16.898Z,1008.06
2018-11-10T07:57:16.970Z,1008.08
2018-11-10T07:58:16.833Z,1008.08
2018-11-10T07:59:16.800Z,1008.08
2018-11-10T08:00:16.788Z,1008.07
2018-11-10T08:01:16.742Z,1008.10
2018-11-10T08:02:16.751Z,1008.08
2018-11-10T08:03:16.684Z,1008.02
2018-11-10T08:04:16.655Z,1008.02
2018-11-10T08:05:16.659Z,1007.98
2018-11-10T08:06:16.634Z,1007.96
2018-11-10T08:07:16.555Z,1007.96
2018-11-10T08:08:16.527Z,1007.93
2018-11-10T08:09:16.493Z,1007.97
2018-11-10T08:10:16.522Z,1007.96
2018-11-10T08:11:16.429Z,1007.97
2018-11-10T08:12:16.399Z,1007.98
2018-11-10T08:13:16.372Z,1007.95
2018-11-10T08:14:16.336Z,1007.96
2018-11-10T08:15:16.351Z,1007.99
2018-11-10T08:16:16.280Z,1007.95
2018-11-10T08:17:16.288Z,1007.99
2018-11-10T08:18:16.259Z,1007.98
2018-11-10T08:19:16.226Z,1008.04
2018-11-10T08:20:16.151Z,1008.06
2018-11-10T08:21:16.169Z,1008.08
2018-11-10T08:22:16.093Z,1008.01
2018-11-10T08:23:16.059Z,1008.02
2018-11-10T08:24:16.073Z,1007.98
2018-11-10T08:25:15.995Z,1007.96
2018-11-10T08:26:16.019Z,1008.01
2018-11-10T08:27:15.939Z,1008.02
2018-11-10T08:28:15.904Z,1008.00
2018-11-10T08:29:15.874Z,1007.99
2018-11-10T08:30:15.894Z,1007.98
2018-11-10T08:31:15.847Z,1007.96
2018-11-10T08:32:15.797Z,1007.93
2018-11-10T08:33:15.756Z,1007.94
2018-11-10T08:34:15.723Z,1007.92
2018-11-10T08:35:15.746Z,1007.90
2018-11-10T08:36:15.662Z,1007.88
2018-11-10T08:37:15.640Z,1007.86
2018-11-10T08:38:15.602Z,1007.85
2018-11-10T08:39:15.657Z,1007.80
2018-11-10T08:40:15.583Z,1007.79
2018-11-10T08:41:15.513Z,1007.80
2018-11-10T08:42:15.483Z,1007.74
2018-11-10T08:43:15.451Z,1007.74
2018-11-10T08:44:15.456Z,1007.71
2018-11-10T08:45:15.388Z,1007.71
2018-11-10T08:46:15.422Z,1007.68
2018-11-10T08:47:15.328Z,1007.69
2018-11-10T08:48:15.301Z,1007.68
2018-11-10T08:49:16.148Z,1007.70
2018-11-10T08:50:15.238Z,1007.66
2018-11-10T08:51:15.254Z,1007.63
2018-11-10T08:52:15.183Z,1007.65
2018-11-10T08:53:15.148Z,1007.62
2018-11-10T08:54:15.163Z,1007.63
2018-11-10T08:55:15.131Z,1007.65
2018-11-10T08:56:15.078Z,1007.58
2018-11-10T08:57:15.029Z,1007.62
2018-11-10T08:58:15.003Z,1007.65
2018-11-10T08:59:15.089Z,1007.60
2018-11-10T09:00:14.943Z,1007.64
2018-11-10T09:01:14.914Z,1007.67
2018-11-10T09:02:14.920Z,1007.67
2018-11-10T09:03:14.849Z,1007.67
2018-11-10T09:04:14.888Z,1007.70
2018-11-10T09:05:14.795Z,1007.72
2018-11-10T09:06:14.803Z,1007.74
2018-11-10T09:07:14.732Z,1007.77
2018-11-10T09:08:14.996Z,1007.79
2018-11-10T09:09:14.677Z,1007.80
2018-11-10T09:10:14.642Z,1007.81
2018-11-10T09:11:14.657Z,1007.85
2018-11-10T09:12:14.629Z,1007.89
2018-11-10T09:13:14.556Z,1007.96
2018-11-10T09:14:15.095Z,1007.93
2018-11-10T09:15:14.604Z,1007.93
2018-11-10T09:16:14.511Z,1007.94
2018-11-10T09:17:14.494Z,1007.96
2018-11-10T09:18:14.449Z,1007.99
2018-11-10T09:19:14.379Z,1007.98
2018-11-10T09:20:14.371Z,1007.99
2018-11-10T09:21:14.360Z,1007.97
2018-11-10T09:22:14.342Z,1007.97
2018-11-10T09:23:14.270Z,1007.94
2018-11-10T09:24:14.279Z,1007.93
2018-11-10T09:25:14.198Z,1007.87
2018-11-10T09:26:14.225Z,1007.91
2018-11-10T09:27:14.202Z,1007.91
2018-11-10T09:28:14.130Z,1007.88
2018-11-10T09:29:14.079Z,1007.91
2018-11-10T09:30:14.050Z,1007.92
2018-11-10T09:31:14.044Z,1007.95
2018-11-10T09:32:14.039Z,1007.89
2018-11-10T09:33:13.964Z,1007.89
2018-11-10T09:34:13.978Z,1007.89
2018-11-10T09:35:13.908Z,1007.89
2018-11-10T09:36:13.916Z,1007.87
2018-11-10T09:37:13.842Z,1007.85
2018-11-10T09:38:13.860Z,1007.88
2018-11-10T09:39:13.795Z,1007.86
2018-11-10T09:40:13.754Z,1007.87
2018-11-10T09:41:13.730Z,1007.81
2018-11-10T09:42:13.757Z,1007.79
2018-11-10T09:43:13.713Z,1007.78
2018-11-10T09:44:13.637Z,1007.81
2018-11-10T09:45:13.607Z,1007.79
2018-11-10T09:46:13.581Z,1007.80
2018-11-10T09:47:13.591Z,1007.82
2018-11-10T09:48:13.519Z,1007.79
2018-11-10T09:49:13.489Z,1007.83
2018-11-10T09:50:13.533Z,1007.83
2018-11-10T09:51:13.434Z,1007.80
2018-11-10T09:52:13.415Z,1007.77
2018-11-10T09:53:13.372Z,1007.76
2018-11-10T09:54:13.378Z,1007.72
2018-11-10T09:55:13.367Z,1007.72
2018-11-10T09:56:13.294Z,1007.72
2018-11-10T09:57:13.254Z,1007.71
2018-11-10T09:58:13.226Z,1007.65
2018-11-10T09:59:13.654Z,1007.64
2018-11-10T10:00:14.009Z,1007.67
2018-11-10T10:01:13.278Z,1007.59
2018-11-10T10:02:13.552Z,1007.53
2018-11-10T10:03:13.077Z,1007.57
2018-11-10T10:04:13.065Z,1007.56
2018-11-10T10:05:13.065Z,1007.48
2018-11-10T10:06:12.989Z,1007.48
2018-11-10T10:07:12.959Z,1007.44
2018-11-10T10:08:12.931Z,1007.40
2018-11-10T10:09:12.945Z,1007.46
2018-11-10T10:10:12.880Z,1007.45
2018-11-10T10:11:12.890Z,1007.48
2018-11-10T10:12:12.813Z,1007.45
2018-11-10T10:13:12.823Z,1007.42
2018-11-10T10:14:12.760Z,1007.43
2018-11-10T10:15:12.734Z,1007.46
2018-11-10T10:16:12.808Z,1007.49
2018-11-10T10:17:12.715Z,1007.53
2018-11-10T10:18:12.645Z,1007.55
2018-11-10T10:19:12.609Z,1007.60
2018-11-10T10:20:12.578Z,1007.61
2018-11-10T10:21:12.547Z,1007.68
2018-11-10T10:22:12.567Z,1007.69
2018-11-10T10:23:12.533Z,1007.70
2018-11-10T10:24:12.455Z,1007.72
2018-11-10T10:25:12.427Z,1007.74
2018-11-10T10:26:12.400Z,1007.72
2018-11-10T10:27:12.651Z,1007.66
2018-11-10T10:28:12.449Z,1007.62
2018-11-10T10:29:12.317Z,1007.64
2018-11-10T10:30:12.279Z,1007.64
2018-11-10T10:31:12.274Z,1007.63
2018-11-10T10:32:12.226Z,1007.62
2018-11-10T10:33:12.246Z,1007.61
2018-11-10T10:34:12.211Z,1007.67
2018-11-10T10:35:12.304Z,1007.68
2018-11-10T10:36:12.104Z,1007.65
2018-11-10T10:37:12.076Z,1007.63
2018-11-10T10:38:12.089Z,1007.62
2018-11-10T10:39:12.016Z,1007.59
2018-11-10T10:40:11.985Z,1007.58
2018-11-10T10:41:11.976Z,1007.55
2018-11-10T10:42:11.992Z,1007.54
2018-11-10T10:43:11.956Z,1007.54
2018-11-10T10:44:11.869Z,1007.53
2018-11-10T10:45:11.857Z,1007.57
2018-11-10T10:46:11.862Z,1007.50
2018-11-10T10:47:11.787Z,1007.52
2018-11-10T10:48:11.803Z,1007.49
2018-11-10T10:49:11.793Z,1007.47
2018-11-10T10:50:11.761Z,1007.48
2018-11-10T10:51:11.725Z,1007.45
2018-11-10T10:52:11.641Z,1007.47
2018-11-10T10:53:11.612Z,1007.44
2018-11-10T10:54:11.585Z,1007.38
2018-11-10T10:55:11.589Z,1007.38
2018-11-10T10:56:11.690Z,1007.42
2018-11-10T10:57:11.539Z,1007.40
2018-11-10T10:58:12.109Z,1007.41
2018-11-10T10:59:11.435Z,1007.42
2018-11-10T11:00:11.441Z,1007.44
2018-11-10T11:01:11.411Z,1007.44
2018-11-10T11:02:12.115Z,1007.45
2018-11-10T11:03:11.371Z,1007.42
2018-11-10T11:04:11.284Z,1007.40
2018-11-10T11:05:11.258Z,1007.41
2018-11-10T11:06:11.285Z,1007.38
2018-11-10T11:07:11.222Z,1007.31
2018-11-10T11:08:11.185Z,1007.32
2018-11-10T11:09:11.303Z,1007.29
2018-11-10T11:10:11.116Z,1007.25
2018-11-10T11:11:11.133Z,1007.27
2018-11-10T11:12:11.089Z,1007.28
2018-11-10T11:13:11.030Z,1007.31
2018-11-10T11:14:11.006Z,1007.31
2018-11-10T11:15:11.042Z,1007.33
2018-11-10T11:16:11.365Z,1007.31
2018-11-10T11:17:10.917Z,1007.29
2018-11-10T11:18:11.009Z,1007.29
2018-11-10T11:19:10.897Z,1007.24
2018-11-10T11:20:10.887Z,1007.27
2018-11-10T11:21:10.813Z,1007.31
2018-11-10T11:22:10.832Z,1007.27
2018-11-10T11:23:10.802Z,1007.29
2018-11-10T11:24:10.737Z,1007.32
2018-11-10T11:25:10.690Z,1007.29
2018-11-10T11:26:10.767Z,1007.29
2018-11-10T11:27:10.655Z,1007.31
2018-11-10T11:28:10.651Z,1007.27
2018-11-10T11:29:10.633Z,1007.25
2018-11-10T11:30:10.550Z,1007.21
2018-11-10T11:31:10.598Z,1007.16
2018-11-10T11:32:10.571Z,1007.20
2018-11-10T11:33:10.469Z,1007.20
2018-11-10T11:34:10.452Z,1007.18
2018-11-10T11:35:10.507Z,1007.19
2018-11-10T11:36:10.456Z,1007.17
2018-11-10T11:37:10.349Z,1007.20
2018-11-10T11:38:10.324Z,1007.16
2018-11-10T11:39:11.123Z,1007.15
2018-11-10T11:40:10.266Z,1007.11
2018-11-10T11:41:10.787Z,1007.10
2018-11-10T11:42:11.027Z,1007.04
2018-11-10T11:43:10.695Z,1007.05
2018-11-10T11:44:10.163Z,1007.07
2018-11-10T11:45:10.139Z,1007.05
2018-11-10T11:46:10.102Z,1007.10
2018-11-10T11:47:10.070Z,1007.10
2018-11-10T11:48:10.091Z,1007.11
2018-11-10T11:49:10.055Z,1007.12
2018-11-10T11:50:09.991Z,1007.13
2018-11-10T11:51:09.963Z,1007.16
2018-11-10T11:52:09.934Z,1007.15
2018-11-10T11:53:09.953Z,1007.13
2018-11-10T11:54:09.913Z,1007.13
2018-11-10T11:55:09.853Z,1007.14
2018-11-10T11:56:09.868Z,1007.17
2018-11-10T11:57:09.807Z,1007.16
2018-11-10T11:58:09.898Z,1007.15
2018-11-10T11:59:09.781Z,1007.11
2018-11-10T12:00:09.713Z,1007.15
2018-11-10T12:01:10.669Z,1007.17
2018-11-10T12:02:09.732Z,1007.22
2018-11-10T12:03:09.618Z,1007.27
2018-11-10T12:04:09.703Z,1007.30
2018-11-10T12:05:09.622Z,1007.26